sensor_id;sensor_type;location;lat;lon;timestamp;pressure;altitude;pressure_sealevel;temperature;humidity
36748;BME280;22716;51.556;5.080;2024-03-22T00:00:42;101437.41;;;11.92;100.00
36748;BME280;22716;51.556;5.080;2024-03-22T00:03:07;101434.75;;;11.96;100.00
36748;BME280;22716;51.556;5.080;2024-03-22T00:05:34;101435.63;;;11.97;100.00
36748;BME280;22716;51.556;5.080;2024-03-22T00:07:59;101423.34;;;11.96;100.00
36748;BME280;22716;51.556;5.080;2024-03-22T00:10:26;101422.47;;;11.98;100.00
36748;BME280;22716;51.556;5.080;2024-03-22T00:12:52;101426.84;;;11.99;100.00
36748;BME280;22716;51.556;5.080;2024-03-22T00:15:18;101422.47;;;12.00;100.00
36748;BME280;22716;51.556;5.080;2024-03-22T00:17:45;101419.81;;;12.01;100.00
36748;BME280;22716;51.556;5.080;2024-03-22T00:20:12;101417.22;;;12.00;100.00
36748;BME280;22716;51.556;5.080;2024-03-22T00:22:37;101422.44;;;12.03;100.00
36748;BME280;22716;51.556;5.080;2024-03-22T00:25:05;101415.41;;;12.05;100.00
36748;BME280;22716;51.556;5.080;2024-03-22T00:27:31;101411.94;;;12.01;100.00
36748;BME280;22716;51.556;5.080;2024-03-22T00:29:58;101402.31;;;12.02;100.00
36748;BME280;22716;51.556;5.080;2024-03-22T00:32:23;101397.94;;;12.02;100.00
36748;BME280;22716;51.556;5.080;2024-03-22T00:34:51;101404.06;;;12.03;100.00
36748;BME280;22716;51.556;5.080;2024-03-22T00:37:17;101400.53;;;12.04;100.00
36748;BME280;22716;51.556;5.080;2024-03-22T00:39:44;101379.56;;;11.98;100.00
36748;BME280;22716;51.556;5.080;2024-03-22T00:42:09;101378.69;;;12.00;100.00
36748;BME280;22716;51.556;5.080;2024-03-22T00:44:36;101369.00;;;12.04;100.00
36748;BME280;22716;51.556;5.080;2024-03-22T00:47:02;101348.06;;;11.98;100.00
36748;BME280;22716;51.556;5.080;2024-03-22T00:49:29;101351.53;;;12.03;100.00
36748;BME280;22716;51.556;5.080;2024-03-22T00:51:55;101340.16;;;11.98;100.00
36748;BME280;22716;51.556;5.080;2024-03-22T00:54:22;101342.75;;;12.04;100.00
36748;BME280;22716;51.556;5.080;2024-03-22T00:56:48;101341.00;;;12.06;100.00
36748;BME280;22716;51.556;5.080;2024-03-22T00:59:14;101327.03;;;11.99;100.00
36748;BME280;22716;51.556;5.080;2024-03-22T01:01:40;101326.13;;;12.05;100.00
36748;BME280;22716;51.556;5.080;2024-03-22T01:04:06;101311.25;;;12.01;100.00
36748;BME280;22716;51.556;5.080;2024-03-22T01:06:34;101316.50;;;12.04;100.00
36748;BME280;22716;51.556;5.080;2024-03-22T01:09:03;101312.97;;;12.08;100.00
36748;BME280;22716;51.556;5.080;2024-03-22T01:11:29;101319.09;;;12.08;100.00
36748;BME280;22716;51.556;5.080;2024-03-22T01:13:55;101306.84;;;12.06;100.00
36748;BME280;22716;51.556;5.080;2024-03-22T01:16:21;101314.72;;;12.07;100.00
36748;BME280;22716;51.556;5.080;2024-03-22T01:18:47;101321.72;;;12.08;100.00
36748;BME280;22716;51.556;5.080;2024-03-22T01:21:13;101321.72;;;12.07;100.00
36748;BME280;22716;51.556;5.080;2024-03-22T01:23:40;101315.59;;;12.08;100.00
36748;BME280;22716;51.556;5.080;2024-03-22T01:26:07;101313.84;;;12.07;100.00
36748;BME280;22716;51.556;5.080;2024-03-22T01:28:33;101299.91;;;12.00;100.00
36748;BME280;22716;51.556;5.080;2024-03-22T01:30:59;101307.72;;;12.05;100.00
36748;BME280;22716;51.556;5.080;2024-03-22T01:33:25;101293.75;;;12.03;100.00
36748;BME280;22716;51.556;5.080;2024-03-22T01:35:51;101304.25;;;12.01;100.00
36748;BME280;22716;51.556;5.080;2024-03-22T01:38:17;101290.25;;;12.01;100.00
36748;BME280;22716;51.556;5.080;2024-03-22T01:40:43;101283.34;;;11.91;100.00
36748;BME280;22716;51.556;5.080;2024-03-22T01:43:12;101295.53;;;11.98;100.00
36748;BME280;22716;51.556;5.080;2024-03-22T01:45:37;101291.19;;;11.97;100.00
36748;BME280;22716;51.556;5.080;2024-03-22T01:48:04;101277.25;;;11.92;100.00
36748;BME280;22716;51.556;5.080;2024-03-22T01:50:32;101275.47;;;11.91;100.00
36748;BME280;22716;51.556;5.080;2024-03-22T01:52:58;101291.22;;;11.92;100.00
36748;BME280;22716;51.556;5.080;2024-03-22T01:55:24;101293.88;;;11.91;100.00
36748;BME280;22716;51.556;5.080;2024-03-22T01:57:51;101295.63;;;11.89;100.00
36748;BME280;22716;51.556;5.080;2024-03-22T02:00:19;101293.91;;;11.83;100.00
36748;BME280;22716;51.556;5.080;2024-03-22T02:02:46;101305.25;;;11.87;100.00
36748;BME280;22716;51.556;5.080;2024-03-22T02:05:12;101305.25;;;11.87;100.00
36748;BME280;22716;51.556;5.080;2024-03-22T02:07:40;101305.25;;;11.91;100.00
36748;BME280;22716;51.556;5.080;2024-03-22T02:10:06;101308.78;;;11.89;100.00
36748;BME280;22716;51.556;5.080;2024-03-22T02:12:36;101300.97;;;11.79;100.00
36748;BME280;22716;51.556;5.080;2024-03-22T02:15:02;101303.59;;;11.79;100.00
36748;BME280;22716;51.556;5.080;2024-03-22T02:17:30;101300.06;;;11.82;100.00
36748;BME280;22716;51.556;5.080;2024-03-22T02:19:55;101310.53;;;11.85;100.00
36748;BME280;22716;51.556;5.080;2024-03-22T02:22:22;101295.66;;;11.84;100.00
36748;BME280;22716;51.556;5.080;2024-03-22T02:24:49;101299.16;;;11.83;100.00
36748;BME280;22716;51.556;5.080;2024-03-22T02:27:15;101295.69;;;11.81;100.00
36748;BME280;22716;51.556;5.080;2024-03-22T02:29:41;101281.69;;;11.80;100.00
36748;BME280;22716;51.556;5.080;2024-03-22T02:32:07;101279.09;;;11.74;100.00
36748;BME280;22716;51.556;5.080;2024-03-22T02:34:33;101277.38;;;11.73;100.00
36748;BME280;22716;51.556;5.080;2024-03-22T02:37:00;101274.75;;;11.73;100.00
36748;BME280;22716;51.556;5.080;2024-03-22T02:39:26;101264.25;;;11.76;100.00
36748;BME280;22716;51.556;5.080;2024-03-22T02:41:53;101253.75;;;11.76;100.00
36748;BME280;22716;51.556;5.080;2024-03-22T02:44:20;101248.50;;;11.73;100.00
36748;BME280;22716;51.556;5.080;2024-03-22T02:46:45;101244.16;;;11.71;100.00
36748;BME280;22716;51.556;5.080;2024-03-22T02:49:12;101244.16;;;11.69;100.00
36748;BME280;22716;51.556;5.080;2024-03-22T02:51:38;101229.31;;;11.64;100.00
36748;BME280;22716;51.556;5.080;2024-03-22T02:54:04;101245.88;;;11.69;100.00
36748;BME280;22716;51.556;5.080;2024-03-22T02:56:31;101240.66;;;11.67;100.00
36748;BME280;22716;51.556;5.080;2024-03-22T02:58:58;101238.91;;;11.68;100.00
36748;BME280;22716;51.556;5.080;2024-03-22T03:01:24;101231.03;;;11.68;100.00
36748;BME280;22716;51.556;5.080;2024-03-22T03:03:50;101224.91;;;11.67;100.00
36748;BME280;22716;51.556;5.080;2024-03-22T03:06:16;101228.44;;;11.65;100.00
36748;BME280;22716;51.556;5.080;2024-03-22T03:08:45;101214.44;;;11.64;100.00
36748;BME280;22716;51.556;5.080;2024-03-22T03:11:11;101214.50;;;11.58;100.00
36748;BME280;22716;51.556;5.080;2024-03-22T03:13:37;101211.00;;;11.56;100.00
36748;BME280;22716;51.556;5.080;2024-03-22T03:16:05;101199.63;;;11.54;100.00
36748;BME280;22716;51.556;5.080;2024-03-22T03:18:32;101201.38;;;11.55;100.00
36748;BME280;22716;51.556;5.080;2024-03-22T03:20:57;101198.78;;;11.52;100.00
36748;BME280;22716;51.556;5.080;2024-03-22T03:23:24;101202.25;;;11.56;100.00
36748;BME280;22716;51.556;5.080;2024-03-22T03:25:49;101197.03;;;11.53;100.00
36748;BME280;22716;51.556;5.080;2024-03-22T03:28:16;101190.88;;;11.54;100.00
36748;BME280;22716;51.556;5.080;2024-03-22T03:30:41;101192.72;;;11.47;100.00
36748;BME280;22716;51.556;5.080;2024-03-22T03:33:09;101201.41;;;11.51;100.00
36748;BME280;22716;51.556;5.080;2024-03-22T03:35:35;101192.69;;;11.50;100.00
36748;BME280;22716;51.556;5.080;2024-03-22T03:38:01;101161.34;;;11.34;100.00
36748;BME280;22716;51.556;5.080;2024-03-22T03:40:27;101185.69;;;11.48;100.00
36748;BME280;22716;51.556;5.080;2024-03-22T03:42:54;101190.97;;;11.46;100.00
36748;BME280;22716;51.556;5.080;2024-03-22T03:45:19;101189.22;;;11.45;100.00
36748;BME280;22716;51.556;5.080;2024-03-22T03:47:46;101178.72;;;11.45;100.00
36748;BME280;22716;51.556;5.080;2024-03-22T03:50:13;101183.97;;;11.45;100.00
36748;BME280;22716;51.556;5.080;2024-03-22T03:52:39;101173.47;;;11.45;100.00
36748;BME280;22716;51.556;5.080;2024-03-22T03:55:05;101174.34;;;11.47;100.00
36748;BME280;22716;51.556;5.080;2024-03-22T03:57:32;101167.34;;;11.46;100.00
36748;BME280;22716;51.556;5.080;2024-03-22T03:59:57;101159.47;;;11.46;100.00
36748;BME280;22716;51.556;5.080;2024-03-22T04:02:24;101156.88;;;11.43;100.00
36748;BME280;22716;51.556;5.080;2024-03-22T04:04:52;101157.75;;;11.42;100.00
36748;BME280;22716;51.556;5.080;2024-03-22T04:07:20;101161.28;;;11.41;100.00
36748;BME280;22716;51.556;5.080;2024-03-22T04:09:45;101155.19;;;11.36;100.00
36748;BME280;22716;51.556;5.080;2024-03-22T04:12:12;101152.56;;;11.36;100.00
36748;BME280;22716;51.556;5.080;2024-03-22T04:14:38;101151.72;;;11.34;100.00
36748;BME280;22716;51.556;5.080;2024-03-22T04:17:05;101150.81;;;11.37;100.00
36748;BME280;22716;51.556;5.080;2024-03-22T04:19:30;101162.19;;;11.37;100.00
36748;BME280;22716;51.556;5.080;2024-03-22T04:21:57;101164.81;;;11.37;100.00
36748;BME280;22716;51.556;5.080;2024-03-22T04:24:24;101157.81;;;11.36;100.00
36748;BME280;22716;51.556;5.080;2024-03-22T04:26:50;101169.16;;;11.40;100.00
36748;BME280;22716;51.556;5.080;2024-03-22T04:29:16;101174.41;;;11.41;100.00
36748;BME280;22716;51.556;5.080;2024-03-22T04:31:42;101170.03;;;11.40;100.00
36748;BME280;22716;51.556;5.080;2024-03-22T04:34:08;101169.19;;;11.38;100.00
36748;BME280;22716;51.556;5.080;2024-03-22T04:36:35;101163.09;;;11.35;100.00
36748;BME280;22716;51.556;5.080;2024-03-22T04:39:01;101157.84;;;11.33;100.00
36748;BME280;22716;51.556;5.080;2024-03-22T04:41:30;101149.16;;;11.30;100.00
36748;BME280;22716;51.556;5.080;2024-03-22T04:43:56;101156.13;;;11.32;100.00
36748;BME280;22716;51.556;5.080;2024-03-22T04:46:23;101155.25;;;11.32;100.00
36748;BME280;22716;51.556;5.080;2024-03-22T04:48:49;101149.16;;;11.28;100.00
36748;BME280;22716;51.556;5.080;2024-03-22T04:51:15;101148.28;;;11.29;100.00
36748;BME280;22716;51.556;5.080;2024-03-22T04:53:42;101149.16;;;11.25;100.00
36748;BME280;22716;51.556;5.080;2024-03-22T04:56:07;101140.44;;;11.26;100.00
36748;BME280;22716;51.556;5.080;2024-03-22T04:58:35;101143.91;;;11.28;100.00
36748;BME280;22716;51.556;5.080;2024-03-22T05:01:01;101139.56;;;11.25;100.00
36748;BME280;22716;51.556;5.080;2024-03-22T05:03:28;101137.81;;;11.21;100.00
36748;BME280;22716;51.556;5.080;2024-03-22T05:05:53;101130.91;;;11.14;100.00
36748;BME280;22716;51.556;5.080;2024-03-22T05:08:20;101129.13;;;11.16;100.00
36748;BME280;22716;51.556;5.080;2024-03-22T05:10:46;101137.06;;;11.12;100.00
36748;BME280;22716;51.556;5.080;2024-03-22T05:13:12;101124.84;;;11.08;100.00
36748;BME280;22716;51.556;5.080;2024-03-22T05:15:39;101131.84;;;11.09;100.00
36748;BME280;22716;51.556;5.080;2024-03-22T05:18:06;101136.22;;;11.05;100.00
36748;BME280;22716;51.556;5.080;2024-03-22T05:20:32;101132.78;;;11.00;100.00
36748;BME280;22716;51.556;5.080;2024-03-22T05:22:58;101130.13;;;11.02;100.00
36748;BME280;22716;51.556;5.080;2024-03-22T05:25:24;101124.88;;;11.02;100.00
36748;BME280;22716;51.556;5.080;2024-03-22T05:27:51;101130.16;;;10.99;100.00
36748;BME280;22716;51.556;5.080;2024-03-22T05:30:17;101117.03;;;11.00;100.00
36748;BME280;22716;51.556;5.080;2024-03-22T05:32:45;101112.66;;;11.01;100.00
36748;BME280;22716;51.556;5.080;2024-03-22T05:35:11;101110.97;;;10.94;100.00
36748;BME280;22716;51.556;5.080;2024-03-22T05:37:37;101110.09;;;10.93;100.00
36748;BME280;22716;51.556;5.080;2024-03-22T05:40:03;101126.66;;;11.00;100.00
36748;BME280;22716;51.556;5.080;2024-03-22T05:42:30;101126.69;;;10.97;100.00
36748;BME280;22716;51.556;5.080;2024-03-22T05:44:55;101123.19;;;10.98;100.00
36748;BME280;22716;51.556;5.080;2024-03-22T05:47:22;101117.03;;;10.99;100.00
36748;BME280;22716;51.556;5.080;2024-03-22T05:49:49;101120.50;;;11.02;100.00
36748;BME280;22716;51.556;5.080;2024-03-22T05:52:16;101119.63;;;11.02;100.00
36748;BME280;22716;51.556;5.080;2024-03-22T05:54:42;101117.06;;;10.97;100.00
36748;BME280;22716;51.556;5.080;2024-03-22T05:57:08;101111.81;;;10.99;100.00
36748;BME280;22716;51.556;5.080;2024-03-22T05:59:35;101083.06;;;10.87;100.00
36748;BME280;22716;51.556;5.080;2024-03-22T06:02:00;101113.53;;;11.01;100.00
36748;BME280;22716;51.556;5.080;2024-03-22T06:04:27;101112.69;;;10.99;100.00
36748;BME280;22716;51.556;5.080;2024-03-22T06:06:54;101103.94;;;10.96;100.00
36748;BME280;22716;51.556;5.080;2024-03-22T06:09:20;101110.06;;;10.96;100.00
36748;BME280;22716;51.556;5.080;2024-03-22T06:11:50;101100.50;;;10.89;100.00
36748;BME280;22716;51.556;5.080;2024-03-22T06:14:17;101104.88;;;10.92;100.00
36748;BME280;22716;51.556;5.080;2024-03-22T06:16:42;101109.25;;;10.90;100.00
36748;BME280;22716;51.556;5.080;2024-03-22T06:19:09;101112.75;;;10.92;100.00
36748;BME280;22716;51.556;5.080;2024-03-22T06:21:35;101111.88;;;10.91;100.00
36748;BME280;22716;51.556;5.080;2024-03-22T06:24:02;101118.84;;;10.94;100.00
36748;BME280;22716;51.556;5.080;2024-03-22T06:26:28;101112.78;;;10.89;100.00
36748;BME280;22716;51.556;5.080;2024-03-22T06:28:55;101110.16;;;10.89;100.00
36748;BME280;22716;51.556;5.080;2024-03-22T06:31:21;101111.00;;;10.91;100.00
36748;BME280;22716;51.556;5.080;2024-03-22T06:33:47;101101.41;;;10.87;100.00
36748;BME280;22716;51.556;5.080;2024-03-22T06:36:13;101097.91;;;10.88;100.00
36748;BME280;22716;51.556;5.080;2024-03-22T06:38:39;101104.84;;;10.96;100.00
36748;BME280;22716;51.556;5.080;2024-03-22T06:41:06;101083.94;;;10.89;100.00
36748;BME280;22716;51.556;5.080;2024-03-22T06:43:33;101089.94;;;11.00;100.00
36748;BME280;22716;51.556;5.080;2024-03-22T06:45:58;101104.78;;;11.01;100.00
36748;BME280;22716;51.556;5.080;2024-03-22T06:48:25;101091.75;;;10.93;100.00
36748;BME280;22716;51.556;5.080;2024-03-22T06:50:50;101111.75;;;11.05;100.00
36748;BME280;22716;51.556;5.080;2024-03-22T06:53:17;101112.63;;;11.04;100.00
36748;BME280;22716;51.556;5.080;2024-03-22T06:55:42;101109.13;;;11.05;100.00
36748;BME280;22716;51.556;5.080;2024-03-22T06:58:11;101102.09;;;11.07;100.00
36748;BME280;22716;51.556;5.080;2024-03-22T07:00:37;101109.97;;;11.07;100.00
36748;BME280;22716;51.556;5.080;2024-03-22T07:03:05;101107.34;;;11.07;100.00
36748;BME280;22716;51.556;5.080;2024-03-22T07:05:30;101105.63;;;11.06;100.00
36748;BME280;22716;51.556;5.080;2024-03-22T07:07:57;101105.63;;;11.09;100.00
36748;BME280;22716;51.556;5.080;2024-03-22T07:10:23;101052.44;;;10.95;100.00
36748;BME280;22716;51.556;5.080;2024-03-22T07:12:53;101095.06;;;11.15;100.00
36748;BME280;22716;51.556;5.080;2024-03-22T07:15:20;101099.44;;;11.14;100.00
36748;BME280;22716;51.556;5.080;2024-03-22T07:17:47;101102.06;;;11.14;100.00
36748;BME280;22716;51.556;5.080;2024-03-22T07:20:13;101099.41;;;11.16;100.00
36748;BME280;22716;51.556;5.080;2024-03-22T07:22:39;101103.78;;;11.17;100.00
36748;BME280;22716;51.556;5.080;2024-03-22T07:25:05;101092.41;;;11.19;100.00
36748;BME280;22716;51.556;5.080;2024-03-22T07:27:32;101102.88;;;11.19;100.00
36748;BME280;22716;51.556;5.080;2024-03-22T07:29:57;101091.53;;;11.20;100.00
36748;BME280;22716;51.556;5.080;2024-03-22T07:32:25;101094.13;;;11.22;100.00
36748;BME280;22716;51.556;5.080;2024-03-22T07:34:51;101092.34;;;11.27;100.00
36748;BME280;22716;51.556;5.080;2024-03-22T07:37:17;101087.88;;;11.34;100.00
36748;BME280;22716;51.556;5.080;2024-03-22T07:39:43;101088.78;;;11.33;100.00
36748;BME280;22716;51.556;5.080;2024-03-22T07:42:09;101086.09;;;11.37;100.00
36748;BME280;22716;51.556;5.080;2024-03-22T07:44:35;101093.03;;;11.44;100.00
36748;BME280;22716;51.556;5.080;2024-03-22T07:47:01;101093.03;;;11.44;100.00
36748;BME280;22716;51.556;5.080;2024-03-22T07:49:28;101094.75;;;11.47;100.00
36748;BME280;22716;51.556;5.080;2024-03-22T07:51:56;101091.31;;;11.40;100.00
36748;BME280;22716;51.556;5.080;2024-03-22T07:54:22;101085.19;;;11.40;100.00
36748;BME280;22716;51.556;5.080;2024-03-22T07:56:49;101084.34;;;11.38;100.00
36748;BME280;22716;51.556;5.080;2024-03-22T07:59:14;101093.94;;;11.42;100.00
36748;BME280;22716;51.556;5.080;2024-03-22T08:01:41;101095.63;;;11.47;100.00
36748;BME280;22716;51.556;5.080;2024-03-22T08:04:06;101086.03;;;11.46;100.00
36748;BME280;22716;51.556;5.080;2024-03-22T08:06:34;101093.81;;;11.51;100.00
36748;BME280;22716;51.556;5.080;2024-03-22T08:09:00;101088.56;;;11.51;100.00
36748;BME280;22716;51.556;5.080;2024-03-22T08:11:28;101092.06;;;11.51;100.00
36748;BME280;22716;51.556;5.080;2024-03-22T08:13:53;101089.50;;;11.45;100.00
36748;BME280;22716;51.556;5.080;2024-03-22T08:16:27;101097.34;;;11.48;100.00
36748;BME280;22716;51.556;5.080;2024-03-22T08:18:52;101098.22;;;11.50;100.00
36748;BME280;22716;51.556;5.080;2024-03-22T08:21:19;101092.94;;;11.52;100.00
36748;BME280;22716;51.556;5.080;2024-03-22T08:23:46;101102.56;;;11.51;100.00
36748;BME280;22716;51.556;5.080;2024-03-22T08:26:12;101074.72;;;11.40;100.00
36748;BME280;22716;51.556;5.080;2024-03-22T08:28:38;101094.63;;;11.57;100.00
36748;BME280;22716;51.556;5.080;2024-03-22T08:31:05;101092.94;;;11.56;100.00
36748;BME280;22716;51.556;5.080;2024-03-22T08:33:31;101088.47;;;11.61;100.00
36748;BME280;22716;51.556;5.080;2024-03-22T08:35:57;101088.53;;;11.57;100.00
36748;BME280;22716;51.556;5.080;2024-03-22T08:38:23;101073.63;;;11.60;100.00
36748;BME280;22716;51.556;5.080;2024-03-22T08:40:51;101075.38;;;11.60;100.00
36748;BME280;22716;51.556;5.080;2024-03-22T08:43:17;101058.81;;;11.56;100.00
36748;BME280;22716;51.556;5.080;2024-03-22T08:45:43;101076.16;;;11.66;100.00
36748;BME280;22716;51.556;5.080;2024-03-22T08:48:09;101075.28;;;11.67;100.00
36748;BME280;22716;51.556;5.080;2024-03-22T08:50:35;101075.25;;;11.69;100.00
36748;BME280;22716;51.556;5.080;2024-03-22T08:53:01;101071.75;;;11.71;100.00
36748;BME280;22716;51.556;5.080;2024-03-22T08:55:30;101072.63;;;11.72;100.00
36748;BME280;22716;51.556;5.080;2024-03-22T08:57:57;101075.25;;;11.72;100.00
36748;BME280;22716;51.556;5.080;2024-03-22T09:00:23;101071.81;;;11.67;100.00
36748;BME280;22716;51.556;5.080;2024-03-22T09:02:49;101075.25;;;11.73;100.00
36748;BME280;22716;51.556;5.080;2024-03-22T09:05:15;101063.88;;;11.73;100.00
36748;BME280;22716;51.556;5.080;2024-03-22T09:07:41;101067.38;;;11.73;100.00
36748;BME280;22716;51.556;5.080;2024-03-22T09:10:08;101051.69;;;11.66;100.00
36748;BME280;22716;51.556;5.080;2024-03-22T09:12:34;101076.91;;;11.80;100.00
36748;BME280;22716;51.556;5.080;2024-03-22T09:15:02;101076.09;;;11.75;100.00
36748;BME280;22716;51.556;5.080;2024-03-22T09:17:28;101076.13;;;11.74;100.00
36748;BME280;22716;51.556;5.080;2024-03-22T09:19:55;101077.84;;;11.75;100.00
36748;BME280;22716;51.556;5.080;2024-03-22T09:22:20;101075.19;;;11.78;100.00
36748;BME280;22716;51.556;5.080;2024-03-22T09:24:47;101064.72;;;11.75;100.00
36748;BME280;22716;51.556;5.080;2024-03-22T09:27:13;101059.47;;;11.76;100.00
36748;BME280;22716;51.556;5.080;2024-03-22T09:29:39;101056.88;;;11.73;100.00
36748;BME280;22716;51.556;5.080;2024-03-22T09:32:06;101060.38;;;11.74;100.00
36748;BME280;22716;51.556;5.080;2024-03-22T09:34:33;101053.34;;;11.76;100.00
36748;BME280;22716;51.556;5.080;2024-03-22T09:36:59;101035.06;;;11.65;100.00
36748;BME280;22716;51.556;5.080;2024-03-22T09:39:25;101051.56;;;11.79;100.00
36748;BME280;22716;51.556;5.080;2024-03-22T09:41:52;101041.03;;;11.83;100.00
36748;BME280;22716;51.556;5.080;2024-03-22T09:44:21;101048.03;;;11.80;100.00
36748;BME280;22716;51.556;5.080;2024-03-22T09:46:50;101022.81;;;11.70;100.00
36748;BME280;22716;51.556;5.080;2024-03-22T09:49:18;101041.84;;;11.88;100.00
36748;BME280;22716;51.556;5.080;2024-03-22T09:51:45;101048.84;;;11.89;100.00
36748;BME280;22716;51.556;5.080;2024-03-22T09:54:14;101047.88;;;11.94;100.00
36748;BME280;22716;51.556;5.080;2024-03-22T09:56:40;101020.84;;;11.88;100.00
36748;BME280;22716;51.556;5.080;2024-03-22T09:59:07;101038.16;;;12.02;100.00
36748;BME280;22716;51.556;5.080;2024-03-22T10:01:33;101035.47;;;12.05;100.00
36748;BME280;22716;51.556;5.080;2024-03-22T10:04:00;101038.94;;;12.09;100.00
36748;BME280;22716;51.556;5.080;2024-03-22T10:06:28;101041.66;;;12.03;100.00
36748;BME280;22716;51.556;5.080;2024-03-22T10:08:58;101027.84;;;11.89;100.00
36748;BME280;22716;51.556;5.080;2024-03-22T10:11:26;101048.72;;;11.96;100.00
36748;BME280;22716;51.556;5.080;2024-03-22T10:13:52;101042.63;;;11.94;100.00
36748;BME280;22716;51.556;5.080;2024-03-22T10:16:20;101050.56;;;11.91;100.00
36748;BME280;22716;51.556;5.080;2024-03-22T10:18:47;101045.19;;;11.99;100.00
36748;BME280;22716;51.556;5.080;2024-03-22T10:21:17;101045.16;;;12.02;100.00
36748;BME280;22716;51.556;5.080;2024-03-22T10:23:46;101043.34;;;12.04;100.00
36748;BME280;22716;51.556;5.080;2024-03-22T10:26:14;101043.44;;;11.98;100.00
36748;BME280;22716;51.556;5.080;2024-03-22T10:28:44;101040.81;;;11.98;100.00
36748;BME280;22716;51.556;5.080;2024-03-22T10:31:11;101047.00;;;11.94;100.00
36748;BME280;22716;51.556;5.080;2024-03-22T10:33:38;101042.72;;;11.87;100.00
36748;BME280;22716;51.556;5.080;2024-03-22T10:36:06;101043.75;;;11.73;100.00
36748;BME280;22716;51.556;5.080;2024-03-22T10:38:36;101042.06;;;11.66;100.00
36748;BME280;22716;51.556;5.080;2024-03-22T10:41:04;101041.28;;;11.58;100.00
36748;BME280;22716;51.556;5.080;2024-03-22T10:43:31;101049.28;;;11.46;100.00
36748;BME280;22716;51.556;5.080;2024-03-22T10:46:00;101048.41;;;11.46;100.00
36748;BME280;22716;51.556;5.080;2024-03-22T10:48:30;101045.78;;;11.47;100.00
36748;BME280;22716;51.556;5.080;2024-03-22T10:50:59;101044.91;;;11.45;100.00
36748;BME280;22716;51.556;5.080;2024-03-22T10:53:26;101044.13;;;11.37;100.00
36748;BME280;22716;51.556;5.080;2024-03-22T10:55:55;101043.28;;;11.34;100.00
36748;BME280;22716;51.556;5.080;2024-03-22T10:58:26;101040.69;;;11.32;100.00
36748;BME280;22716;51.556;5.080;2024-03-22T11:00:52;101037.19;;;11.32;100.00
36748;BME280;22716;51.556;5.080;2024-03-22T11:03:19;101029.25;;;11.36;100.00
36748;BME280;22716;51.556;5.080;2024-03-22T11:05:46;101033.66;;;11.34;100.00
36748;BME280;22716;51.556;5.080;2024-03-22T11:08:12;101035.44;;;11.32;100.00
36748;BME280;22716;51.556;5.080;2024-03-22T11:10:39;101035.50;;;11.24;100.00
36748;BME280;22716;51.556;5.080;2024-03-22T11:13:06;101019.78;;;11.26;100.00
36748;BME280;22716;51.556;5.080;2024-03-22T11:15:33;101031.91;;;11.35;100.00
36748;BME280;22716;51.556;5.080;2024-03-22T11:18:00;101024.97;;;11.31;100.00
36748;BME280;22716;51.556;5.080;2024-03-22T11:20:26;101028.50;;;11.27;100.00
36748;BME280;22716;51.556;5.080;2024-03-22T11:22:53;101025.03;;;11.26;100.00
36748;BME280;22716;51.556;5.080;2024-03-22T11:25:19;101027.63;;;11.24;100.00
36748;BME280;22716;51.556;5.080;2024-03-22T11:27:46;101023.25;;;11.28;100.00
36748;BME280;22716;51.556;5.080;2024-03-22T11:30:12;101021.56;;;11.22;100.00
36748;BME280;22716;51.556;5.080;2024-03-22T11:32:40;101021.59;;;11.21;100.00
36748;BME280;22716;51.556;5.080;2024-03-22T11:35:10;101004.13;;;11.17;100.00
36748;BME280;22716;51.556;5.080;2024-03-22T11:37:36;101006.72;;;11.18;100.00
36748;BME280;22716;51.556;5.080;2024-03-22T11:40:05;101012.84;;;11.19;100.00
36748;BME280;22716;51.556;5.080;2024-03-22T11:42:32;101008.50;;;11.18;100.00
36748;BME280;22716;51.556;5.080;2024-03-22T11:44:59;100996.25;;;11.17;100.00
36748;BME280;22716;51.556;5.080;2024-03-22T11:47:26;101002.34;;;11.19;100.00
36748;BME280;22716;51.556;5.080;2024-03-22T11:49:55;101002.34;;;11.19;100.00
36748;BME280;22716;51.556;5.080;2024-03-22T11:52:24;100992.72;;;11.21;100.00
36748;BME280;22716;51.556;5.080;2024-03-22T11:54:51;100993.56;;;11.23;100.00
36748;BME280;22716;51.556;5.080;2024-03-22T11:57:18;100991.88;;;11.16;100.00
36748;BME280;22716;51.556;5.080;2024-03-22T11:59:44;100977.03;;;11.16;100.00
36748;BME280;22716;51.556;5.080;2024-03-22T12:02:10;100991.88;;;11.17;100.00
36748;BME280;22716;51.556;5.080;2024-03-22T12:04:40;100971.78;;;11.16;100.00
36748;BME280;22716;51.556;5.080;2024-03-22T12:07:10;100967.53;;;11.05;100.00
36748;BME280;22716;51.556;5.080;2024-03-22T12:09:36;100971.84;;;11.10;100.00
36748;BME280;22716;51.556;5.080;2024-03-22T12:12:04;100958.72;;;11.15;100.00
36748;BME280;22716;51.556;5.080;2024-03-22T12:14:29;100954.28;;;11.20;100.00
36748;BME280;22716;51.556;5.080;2024-03-22T12:16:56;100945.56;;;11.16;100.00
36748;BME280;22716;51.556;5.080;2024-03-22T12:19:22;100955.97;;;11.22;100.00
36748;BME280;22716;51.556;5.080;2024-03-22T12:21:48;100953.41;;;11.21;100.00
36748;BME280;22716;51.556;5.080;2024-03-22T12:24:15;100943.78;;;11.20;100.00
36748;BME280;22716;51.556;5.080;2024-03-22T12:26:42;100944.72;;;11.13;100.00
36748;BME280;22716;51.556;5.080;2024-03-22T12:29:07;100946.44;;;11.17;100.00
36748;BME280;22716;51.556;5.080;2024-03-22T12:31:37;100940.31;;;11.16;100.00
36748;BME280;22716;51.556;5.080;2024-03-22T12:34:03;100939.41;;;11.19;100.00
36748;BME280;22716;51.556;5.080;2024-03-22T12:36:29;100931.50;;;11.23;100.00